Jiaoxian, China
Current Conditions -  °F | °C
As of 6:00 PM on Friday 24 Oct 2014 (Local Time) from ZSQD Reporting Station
Haze Haze  
Wind Chill: 66°   Ceiling: Unl
Heat Index: 66°   Visibility: 2.1mi
Dew Point: 59°   Wind: 16mph
Humidity: 78%   Direction: 160°SSE
Pressure: 29.97"   Gusts: NA
Location:  36.28°N, 120°E
Report Text: ZSQD 241000Z 16007MPS 3500 BR NSC 19/15 Q1015 NOSIG
Loading
Personal Weather Stations






























Interactive Weather Map New forecast layout! Learn more

10-Day Weather Forecast

Advertisements
Track Severe Weather on mobile